LTU152 EDDL-LEIB
Flight info
| Callsign | LTU152 |
|---|---|
| Flight time | 2h 7m |
| Altitude | 24000 |
| Route | MODRU7Z MODRU Z283 LNO/N0470F370 Z283 SOPOK DCT ROUSY DCT GTQ DCT POGOL DCT LASAT DCT MOROK DCT GILIR DCT GEVEA DCT INCUS DCT BALSI DCT RETNO DCT TUPOX DCT MTG DCT DIVKO DCT VATIR DCT PIVUS Z237 SULID DCT DIMIB DCT POS POS5V |
| Aircraft | L101/H-SDFGHIRWXY/S |
Departure
| Time | 2026-05-01 09:56 |
|---|---|
| Airport | Düsseldorf Airport (EDDL) |
Arrival
| Time | 2026-05-01 12:03 |
|---|---|
| Airport | Ibiza Airport (LEIB) |
| Time | Latitude | Longitude | Altitude | Speed | Heading |
|---|---|---|---|---|---|
| 2026-05-01 09:20 | 51.27943 | 6.76163 | 135 ft | 0 kts | 91° |
| 2026-05-01 09:44 | 51.27943 | 6.76129 | 135 ft | 3 kts | 90° |
| 2026-05-01 09:44 | 51.27943 | 6.76103 | 135 ft | 3 kts | 85° |
| 2026-05-01 09:44 | 51.27939 | 6.76074 | 135 ft | 3 kts | 53° |
| 2026-05-01 09:45 | 51.27925 | 6.76054 | 135 ft | 3 kts | 18° |
| 2026-05-01 09:45 | 51.27893 | 6.76047 | 135 ft | 1 kts | 1° |
| 2026-05-01 09:45 | 51.27890 | 6.76047 | 135 ft | 0 kts | 1° |
| 2026-05-01 09:50 | 51.27891 | 6.76047 | 135 ft | 1 kts | 1° |
| 2026-05-01 09:50 | 51.27912 | 6.76048 | 135 ft | 5 kts | 1° |
| 2026-05-01 09:50 | 51.27961 | 6.76046 | 135 ft | 9 kts | 354° |
| 2026-05-01 09:50 | 51.28032 | 6.76038 | 135 ft | 13 kts | 356° |
| 2026-05-01 09:51 | 51.28130 | 6.76050 | 135 ft | 16 kts | 32° |
| 2026-05-01 09:51 | 51.28216 | 6.76186 | 133 ft | 19 kts | 55° |
| 2026-05-01 09:51 | 51.28295 | 6.76371 | 130 ft | 22 kts | 53° |
| 2026-05-01 09:51 | 51.28395 | 6.76583 | 125 ft | 25 kts | 52° |
| 2026-05-01 09:52 | 51.28504 | 6.76809 | 126 ft | 26 kts | 53° |
| 2026-05-01 09:52 | 51.28605 | 6.77023 | 135 ft | 19 kts | 53° |
| 2026-05-01 09:52 | 51.28684 | 6.77192 | 135 ft | 19 kts | 51° |
| 2026-05-01 09:52 | 51.28772 | 6.77371 | 135 ft | 22 kts | 53° |
| 2026-05-01 09:53 | 51.28860 | 6.77563 | 135 ft | 19 kts | 52° |
| 2026-05-01 09:53 | 51.28925 | 6.77695 | 135 ft | 13 kts | 52° |
| 2026-05-01 09:53 | 51.28964 | 6.77775 | 135 ft | 8 kts | 52° |
| 2026-05-01 09:53 | 51.29007 | 6.77863 | 135 ft | 12 kts | 52° |
| 2026-05-01 09:54 | 51.29063 | 6.77977 | 136 ft | 15 kts | 52° |
| 2026-05-01 09:54 | 51.29134 | 6.78123 | 139 ft | 18 kts | 52° |
| 2026-05-01 09:54 | 51.29214 | 6.78278 | 144 ft | 18 kts | 38° |
| 2026-05-01 09:54 | 51.29318 | 6.78397 | 150 ft | 18 kts | 37° |
| 2026-05-01 09:55 | 51.29411 | 6.78474 | 154 ft | 11 kts | 358° |
| 2026-05-01 09:55 | 51.29488 | 6.78436 | 158 ft | 12 kts | 301° |
| 2026-05-01 09:55 | 51.29471 | 6.78350 | 153 ft | 8 kts | 230° |
| 2026-05-01 09:55 | 51.29457 | 6.78324 | 153 ft | 9 kts | 231° |
| 2026-05-01 09:56 | 51.29267 | 6.77934 | 145 ft | 91 kts | 232° |
| 2026-05-01 09:56 | 51.28709 | 6.76754 | 288 ft | 163 kts | 230° |
| 2026-05-01 09:56 | 51.28019 | 6.75219 | 1353 ft | 174 kts | 228° |
| 2026-05-01 09:56 | 51.27340 | 6.73701 | 2487 ft | 154 kts | 226° |
| 2026-05-01 09:57 | 51.26732 | 6.72239 | 2791 ft | 168 kts | 231° |
| 2026-05-01 09:57 | 51.26264 | 6.70448 | 3123 ft | 183 kts | 242° |
| 2026-05-01 09:57 | 51.25957 | 6.68389 | 3349 ft | 200 kts | 252° |
| 2026-05-01 09:57 | 51.25740 | 6.66106 | 3522 ft | 213 kts | 255° |
| 2026-05-01 09:58 | 51.25643 | 6.63714 | 3837 ft | 223 kts | 270° |
| 2026-05-01 09:58 | 51.26059 | 6.61276 | 4091 ft | 231 kts | 292° |
| 2026-05-01 09:58 | 51.26885 | 6.59043 | 4391 ft | 237 kts | 300° |
| 2026-05-01 09:58 | 51.27825 | 6.56678 | 4785 ft | 267 kts | 296° |
| 2026-05-01 09:59 | 51.28489 | 6.53820 | 5088 ft | 280 kts | 274° |
| 2026-05-01 09:59 | 51.28458 | 6.50766 | 5261 ft | 274 kts | 258° |
| 2026-05-01 09:59 | 51.28196 | 6.47740 | 5418 ft | 276 kts | 260° |
| 2026-05-01 09:59 | 51.28081 | 6.44669 | 5541 ft | 279 kts | 264° |
| 2026-05-01 10:00 | 51.28026 | 6.41573 | 5704 ft | 280 kts | 264° |
| 2026-05-01 10:00 | 51.27876 | 6.38524 | 5865 ft | 279 kts | 259° |
| 2026-05-01 10:00 | 51.27589 | 6.35459 | 6050 ft | 277 kts | 255° |
| 2026-05-01 10:00 | 51.27025 | 6.32532 | 6216 ft | 273 kts | 237° |
| 2026-05-01 10:01 | 51.25797 | 6.30329 | 6324 ft | 263 kts | 211° |
| 2026-05-01 10:01 | 51.24245 | 6.28843 | 6476 ft | 260 kts | 208° |
| 2026-05-01 10:01 | 51.22774 | 6.27152 | 6590 ft | 262 kts | 215° |
| 2026-05-01 10:01 | 51.21389 | 6.25260 | 6721 ft | 261 kts | 216° |
| 2026-05-01 10:02 | 51.19956 | 6.23496 | 6831 ft | 260 kts | 210° |
| 2026-05-01 10:02 | 51.18432 | 6.21979 | 6969 ft | 257 kts | 206° |
| 2026-05-01 10:02 | 51.16845 | 6.20645 | 7080 ft | 257 kts | 202° |
| 2026-05-01 10:02 | 51.15241 | 6.19384 | 7178 ft | 256 kts | 202° |
| 2026-05-01 10:03 | 51.13642 | 6.18139 | 7291 ft | 256 kts | 203° |
| 2026-05-01 10:03 | 51.12048 | 6.16894 | 7412 ft | 255 kts | 202° |
| 2026-05-01 10:03 | 51.10459 | 6.15654 | 7538 ft | 254 kts | 202° |
| 2026-05-01 10:03 | 51.08867 | 6.14429 | 7662 ft | 254 kts | 202° |
| 2026-05-01 10:04 | 51.07271 | 6.13217 | 7769 ft | 254 kts | 202° |
| 2026-05-01 10:04 | 51.05675 | 6.12018 | 7915 ft | 255 kts | 201° |
| 2026-05-01 10:04 | 51.04092 | 6.10831 | 8027 ft | 255 kts | 202° |
| 2026-05-01 10:04 | 51.02504 | 6.09555 | 8150 ft | 256 kts | 205° |
| 2026-05-01 10:05 | 51.00961 | 6.08130 | 8279 ft | 256 kts | 207° |
| 2026-05-01 10:05 | 50.99433 | 6.06632 | 8413 ft | 264 kts | 208° |
| 2026-05-01 10:05 | 50.97826 | 6.05069 | 8543 ft | 277 kts | 208° |
| 2026-05-01 10:05 | 50.96171 | 6.03479 | 8770 ft | 278 kts | 207° |
| 2026-05-01 10:06 | 50.94502 | 6.01929 | 8957 ft | 279 kts | 206° |
| 2026-05-01 10:06 | 50.92803 | 6.00449 | 9147 ft | 285 kts | 205° |
| 2026-05-01 10:06 | 50.90987 | 5.98923 | 9825 ft | 302 kts | 204° |
| 2026-05-01 10:06 | 50.89136 | 5.97365 | 10892 ft | 302 kts | 205° |
| 2026-05-01 10:07 | 50.87255 | 5.95760 | 11670 ft | 314 kts | 205° |
| 2026-05-01 10:07 | 50.85257 | 5.94056 | 11995 ft | 339 kts | 205° |
| 2026-05-01 10:07 | 50.83105 | 5.92227 | 12142 ft | 364 kts | 205° |
| 2026-05-01 10:07 | 50.80813 | 5.90258 | 12331 ft | 382 kts | 206° |
| 2026-05-01 10:08 | 50.76188 | 5.86220 | 13960 ft | 380 kts | 206° |
| 2026-05-01 10:08 | 50.73848 | 5.84192 | 14431 ft | 389 kts | 206° |
| 2026-05-01 10:08 | 50.71458 | 5.82135 | 15085 ft | 391 kts | 206° |
| 2026-05-01 10:09 | 50.69060 | 5.80072 | 15736 ft | 396 kts | 206° |
| 2026-05-01 10:09 | 50.66625 | 5.77976 | 16419 ft | 400 kts | 206° |
| 2026-05-01 10:09 | 50.64175 | 5.75866 | 17109 ft | 404 kts | 206° |
| 2026-05-01 10:09 | 50.61681 | 5.73721 | 17804 ft | 409 kts | 206° |
| 2026-05-01 10:10 | 50.59144 | 5.71676 | 18488 ft | 412 kts | 200° |
| 2026-05-01 10:10 | 50.56370 | 5.70560 | 19088 ft | 413 kts | 182° |
| 2026-05-01 10:10 | 50.50708 | 5.72002 | 20310 ft | 419 kts | 164° |
| 2026-05-01 10:11 | 50.47908 | 5.73058 | 21052 ft | 422 kts | 167° |
| 2026-05-01 10:11 | 50.44929 | 5.73785 | 21708 ft | 429 kts | 171° |
| 2026-05-01 10:11 | 50.41994 | 5.74244 | 22481 ft | 433 kts | 173° |
| 2026-05-01 10:11 | 50.38926 | 5.74721 | 23068 ft | 440 kts | 172° |
| 2026-05-01 10:12 | 50.35899 | 5.75281 | 23635 ft | 448 kts | 171° |
| 2026-05-01 10:12 | 50.33801 | 5.75703 | 24054 ft | 451 kts | 171° |
| 2026-05-01 10:12 | 50.26515 | 5.77228 | 25457 ft | 459 kts | 168° |
| 2026-05-01 10:13 | 50.23384 | 5.78352 | 25835 ft | 467 kts | 162° |
| 2026-05-01 10:13 | 50.20224 | 5.79799 | 25966 ft | 480 kts | 162° |
| 2026-05-01 10:13 | 50.16979 | 5.81298 | 26175 ft | 491 kts | 162° |
| 2026-05-01 10:14 | 50.10429 | 5.84069 | 27991 ft | 480 kts | 163° |
| 2026-05-01 10:14 | 50.07214 | 5.85435 | 28729 ft | 481 kts | 163° |
| 2026-05-01 10:14 | 50.03984 | 5.86853 | 29507 ft | 480 kts | 162° |
| 2026-05-01 10:14 | 50.00798 | 5.88268 | 30566 ft | 473 kts | 163° |
| 2026-05-01 10:15 | 49.97635 | 5.89674 | 31202 ft | 475 kts | 163° |
| 2026-05-01 10:15 | 49.94461 | 5.91075 | 31978 ft | 471 kts | 163° |
| 2026-05-01 10:15 | 49.91322 | 5.92456 | 32847 ft | 468 kts | 163° |
| 2026-05-01 10:15 | 49.89235 | 5.93375 | 33192 ft | 471 kts | 163° |
| 2026-05-01 10:16 | 49.86089 | 5.94759 | 33877 ft | 469 kts | 163° |
| 2026-05-01 10:16 | 49.82963 | 5.96134 | 34710 ft | 464 kts | 164° |
| 2026-05-01 10:16 | 49.76714 | 5.98873 | 35757 ft | 467 kts | 163° |
| 2026-05-01 10:17 | 49.73592 | 6.00239 | 36381 ft | 466 kts | 163° |
| 2026-05-01 10:17 | 49.67328 | 6.02978 | 37214 ft | 472 kts | 163° |
| 2026-05-01 10:17 | 49.64196 | 6.04344 | 37295 ft | 473 kts | 164° |
| 2026-05-01 10:18 | 49.54729 | 6.08464 | 37311 ft | 470 kts | 164° |
| 2026-05-01 10:19 | 49.48624 | 6.11887 | 37260 ft | 467 kts | 146° |
| 2026-05-01 10:19 | 49.43471 | 6.17917 | 37318 ft | 467 kts | 143° |
| 2026-05-01 10:20 | 49.35537 | 6.26681 | 37322 ft | 469 kts | 142° |
| 2026-05-01 10:20 | 49.30400 | 6.32884 | 37308 ft | 470 kts | 141° |
| 2026-05-01 10:21 | 49.22740 | 6.42265 | 37304 ft | 470 kts | 141° |
| 2026-05-01 10:22 | 49.15086 | 6.51640 | 37311 ft | 470 kts | 141° |
| 2026-05-01 10:23 | 49.07470 | 6.60946 | 37302 ft | 467 kts | 141° |
| 2026-05-01 10:23 | 48.99355 | 6.69033 | 37242 ft | 468 kts | 166° |
| 2026-05-01 10:24 | 48.92919 | 6.69850 | 37352 ft | 471 kts | 176° |
| 2026-05-01 10:24 | 48.86349 | 6.70488 | 37309 ft | 472 kts | 176° |
| 2026-05-01 10:25 | 48.73224 | 6.70522 | 37309 ft | 471 kts | 181° |
| 2026-05-01 10:26 | 48.66662 | 6.70317 | 37300 ft | 471 kts | 180° |
| 2026-05-01 10:27 | 48.53580 | 6.69838 | 37295 ft | 471 kts | 181° |
| 2026-05-01 10:28 | 48.43732 | 6.69460 | 37298 ft | 472 kts | 181° |
| 2026-05-01 10:28 | 48.33862 | 6.69079 | 37289 ft | 472 kts | 181° |
| 2026-05-01 10:29 | 48.24046 | 6.68707 | 37295 ft | 472 kts | 181° |
| 2026-05-01 10:30 | 48.10942 | 6.68202 | 37291 ft | 470 kts | 181° |
| 2026-05-01 10:31 | 47.97855 | 6.67710 | 37301 ft | 469 kts | 180° |
| 2026-05-01 10:32 | 47.88084 | 6.67340 | 37305 ft | 468 kts | 181° |
| 2026-05-01 10:33 | 47.75048 | 6.66849 | 37306 ft | 469 kts | 180° |
| 2026-05-01 10:34 | 47.65297 | 6.66483 | 37302 ft | 469 kts | 180° |
| 2026-05-01 10:34 | 47.58775 | 6.66240 | 37287 ft | 469 kts | 181° |
| 2026-05-01 10:35 | 47.48980 | 6.65873 | 37298 ft | 469 kts | 180° |
| 2026-05-01 10:35 | 47.42492 | 6.65002 | 37237 ft | 469 kts | 197° |
| 2026-05-01 10:36 | 47.36951 | 6.60105 | 37334 ft | 468 kts | 216° |
| 2026-05-01 10:36 | 47.34304 | 6.57260 | 37331 ft | 472 kts | 214° |
| 2026-05-01 10:37 | 47.28998 | 6.51659 | 37300 ft | 472 kts | 216° |
| 2026-05-01 10:37 | 47.21352 | 6.42493 | 37289 ft | 473 kts | 219° |
| 2026-05-01 10:38 | 47.16318 | 6.36270 | 37285 ft | 472 kts | 219° |
| 2026-05-01 10:38 | 47.11300 | 6.30050 | 37282 ft | 472 kts | 218° |
| 2026-05-01 10:39 | 47.08634 | 6.27260 | 37247 ft | 470 kts | 206° |
| 2026-05-01 10:39 | 47.05585 | 6.25650 | 37217 ft | 464 kts | 189° |
| 2026-05-01 10:39 | 46.99202 | 6.24283 | 37294 ft | 467 kts | 189° |
| 2026-05-01 10:40 | 46.92787 | 6.22553 | 37294 ft | 469 kts | 188° |
| 2026-05-01 10:40 | 46.86321 | 6.21384 | 37298 ft | 468 kts | 185° |
| 2026-05-01 10:41 | 46.79866 | 6.20468 | 37286 ft | 469 kts | 185° |
| 2026-05-01 10:42 | 46.70135 | 6.19119 | 37284 ft | 465 kts | 185° |
| 2026-05-01 10:42 | 46.63730 | 6.18262 | 37299 ft | 464 kts | 185° |
| 2026-05-01 10:43 | 46.57299 | 6.17409 | 37306 ft | 464 kts | 185° |
| 2026-05-01 10:43 | 46.50856 | 6.16559 | 37290 ft | 465 kts | 185° |
| 2026-05-01 10:44 | 46.44412 | 6.15710 | 37303 ft | 464 kts | 185° |
| 2026-05-01 10:44 | 46.37978 | 6.14867 | 37312 ft | 464 kts | 185° |
| 2026-05-01 10:45 | 46.31529 | 6.14023 | 37313 ft | 465 kts | 185° |
| 2026-05-01 10:45 | 46.25085 | 6.13102 | 37323 ft | 465 kts | 188° |
| 2026-05-01 10:46 | 46.18684 | 6.11702 | 37321 ft | 465 kts | 189° |
| 2026-05-01 10:46 | 46.12290 | 6.10281 | 37323 ft | 465 kts | 189° |
| 2026-05-01 10:47 | 46.05920 | 6.08889 | 37286 ft | 465 kts | 189° |
| 2026-05-01 10:47 | 45.99526 | 6.07475 | 37293 ft | 465 kts | 189° |
| 2026-05-01 10:48 | 45.93120 | 6.06059 | 37286 ft | 466 kts | 189° |
| 2026-05-01 10:48 | 45.86699 | 6.04611 | 37286 ft | 466 kts | 191° |
| 2026-05-01 10:49 | 45.80302 | 6.03050 | 37287 ft | 467 kts | 189° |
| 2026-05-01 10:49 | 45.73853 | 6.01763 | 37283 ft | 469 kts | 189° |
| 2026-05-01 10:50 | 45.67393 | 6.00379 | 37295 ft | 469 kts | 190° |
| 2026-05-01 10:50 | 45.60933 | 5.98956 | 37284 ft | 470 kts | 190° |
| 2026-05-01 10:51 | 45.54455 | 5.97540 | 37289 ft | 471 kts | 191° |
| 2026-05-01 10:51 | 45.48012 | 5.96073 | 37295 ft | 471 kts | 193° |
| 2026-05-01 10:52 | 45.41600 | 5.94108 | 37289 ft | 471 kts | 195° |
| 2026-05-01 10:52 | 45.35185 | 5.92111 | 37277 ft | 473 kts | 194° |
| 2026-05-01 10:53 | 45.28730 | 5.90129 | 37282 ft | 473 kts | 194° |
| 2026-05-01 10:53 | 45.22294 | 5.88130 | 37295 ft | 473 kts | 195° |
| 2026-05-01 10:54 | 45.15903 | 5.86144 | 37285 ft | 474 kts | 195° |
| 2026-05-01 10:54 | 45.09454 | 5.84145 | 37297 ft | 474 kts | 195° |
| 2026-05-01 10:55 | 45.03008 | 5.82152 | 37295 ft | 474 kts | 195° |
| 2026-05-01 10:55 | 44.96551 | 5.80159 | 37296 ft | 475 kts | 195° |
| 2026-05-01 10:56 | 44.90092 | 5.78170 | 37298 ft | 475 kts | 195° |
| 2026-05-01 10:56 | 44.83631 | 5.76185 | 37291 ft | 475 kts | 195° |
| 2026-05-01 10:57 | 44.77168 | 5.74204 | 37299 ft | 476 kts | 195° |
| 2026-05-01 10:57 | 44.70699 | 5.72226 | 37295 ft | 476 kts | 195° |
| 2026-05-01 10:58 | 44.64228 | 5.70251 | 37303 ft | 475 kts | 195° |
| 2026-05-01 10:58 | 44.57784 | 5.68292 | 37293 ft | 473 kts | 195° |
| 2026-05-01 10:59 | 44.51395 | 5.66351 | 37297 ft | 472 kts | 195° |
| 2026-05-01 10:59 | 44.44958 | 5.64400 | 37299 ft | 472 kts | 195° |
| 2026-05-01 11:00 | 44.38553 | 5.62302 | 37287 ft | 471 kts | 200° |
| 2026-05-01 11:00 | 44.32439 | 5.59088 | 37298 ft | 470 kts | 204° |
| 2026-05-01 11:01 | 44.26323 | 5.55837 | 37299 ft | 470 kts | 203° |
| 2026-05-01 11:01 | 44.20202 | 5.52585 | 37296 ft | 470 kts | 204° |
| 2026-05-01 11:02 | 44.14134 | 5.49284 | 37295 ft | 471 kts | 204° |
| 2026-05-01 11:02 | 44.08035 | 5.45967 | 37290 ft | 471 kts | 204° |
| 2026-05-01 11:03 | 44.01922 | 5.42646 | 37291 ft | 471 kts | 204° |
| 2026-05-01 11:03 | 43.96834 | 5.39885 | 37288 ft | 471 kts | 204° |
| 2026-05-01 11:04 | 43.89725 | 5.36050 | 37285 ft | 471 kts | 204° |
| 2026-05-01 11:04 | 43.83611 | 5.32759 | 37294 ft | 471 kts | 204° |
| 2026-05-01 11:05 | 43.78501 | 5.30003 | 37288 ft | 469 kts | 204° |
| 2026-05-01 11:05 | 43.72466 | 5.26754 | 37287 ft | 468 kts | 204° |
| 2026-05-01 11:06 | 43.66396 | 5.23491 | 37286 ft | 468 kts | 204° |
| 2026-05-01 11:06 | 43.60330 | 5.20238 | 37293 ft | 468 kts | 204° |
| 2026-05-01 11:07 | 43.51229 | 5.15369 | 37281 ft | 468 kts | 203° |
| 2026-05-01 11:07 | 43.45156 | 5.12129 | 37289 ft | 467 kts | 203° |
| 2026-05-01 11:08 | 43.39189 | 5.08604 | 37268 ft | 464 kts | 213° |
| 2026-05-01 11:09 | 43.31132 | 5.01285 | 37295 ft | 463 kts | 215° |
| 2026-05-01 11:09 | 43.25772 | 4.96495 | 37293 ft | 462 kts | 216° |
| 2026-05-01 11:10 | 43.17804 | 4.89074 | 37299 ft | 461 kts | 216° |
| 2026-05-01 11:10 | 43.12502 | 4.84121 | 37289 ft | 461 kts | 216° |
| 2026-05-01 11:11 | 43.07200 | 4.79184 | 37296 ft | 460 kts | 215° |
| 2026-05-01 11:11 | 43.01662 | 4.74774 | 37308 ft | 461 kts | 211° |
| 2026-05-01 11:12 | 42.96049 | 4.70538 | 37293 ft | 460 kts | 211° |
| 2026-05-01 11:12 | 42.90461 | 4.66256 | 37289 ft | 460 kts | 211° |
| 2026-05-01 11:13 | 42.84910 | 4.62043 | 37306 ft | 460 kts | 211° |
| 2026-05-01 11:13 | 42.79312 | 4.57818 | 37300 ft | 459 kts | 210° |
| 2026-05-01 11:14 | 42.73716 | 4.53597 | 37291 ft | 458 kts | 211° |
| 2026-05-01 11:14 | 42.68141 | 4.49404 | 37299 ft | 458 kts | 210° |
| 2026-05-01 11:15 | 42.62557 | 4.45211 | 37300 ft | 457 kts | 211° |
| 2026-05-01 11:15 | 42.56971 | 4.41034 | 37290 ft | 457 kts | 210° |
| 2026-05-01 11:16 | 42.51427 | 4.36892 | 37290 ft | 458 kts | 210° |
| 2026-05-01 11:16 | 42.45852 | 4.32727 | 37286 ft | 457 kts | 210° |
| 2026-05-01 11:17 | 42.40267 | 4.28561 | 37278 ft | 457 kts | 210° |
| 2026-05-01 11:17 | 42.34686 | 4.24418 | 37281 ft | 458 kts | 211° |
| 2026-05-01 11:18 | 42.29097 | 4.20279 | 37282 ft | 458 kts | 211° |
| 2026-05-01 11:18 | 42.23497 | 4.16132 | 37269 ft | 458 kts | 210° |
| 2026-05-01 11:19 | 42.17939 | 4.12034 | 37273 ft | 458 kts | 211° |
| 2026-05-01 11:19 | 42.12343 | 4.07953 | 37263 ft | 457 kts | 210° |
| 2026-05-01 11:20 | 42.06739 | 4.03888 | 37262 ft | 457 kts | 210° |
| 2026-05-01 11:20 | 42.01155 | 3.99803 | 37260 ft | 457 kts | 210° |
| 2026-05-01 11:21 | 41.95570 | 3.95717 | 37262 ft | 457 kts | 211° |
| 2026-05-01 11:21 | 41.89936 | 3.91752 | 37258 ft | 457 kts | 208° |
| 2026-05-01 11:22 | 41.84252 | 3.87955 | 37258 ft | 455 kts | 208° |
| 2026-05-01 11:22 | 41.78591 | 3.84137 | 37252 ft | 455 kts | 208° |
| 2026-05-01 11:23 | 41.72925 | 3.80326 | 37259 ft | 455 kts | 208° |
| 2026-05-01 11:23 | 41.67306 | 3.76561 | 37250 ft | 453 kts | 208° |
| 2026-05-01 11:24 | 41.61664 | 3.72788 | 37248 ft | 453 kts | 208° |
| 2026-05-01 11:25 | 41.53215 | 3.67151 | 37242 ft | 453 kts | 208° |
| 2026-05-01 11:25 | 41.44763 | 3.61527 | 37238 ft | 452 kts | 208° |
| 2026-05-01 11:26 | 41.36252 | 3.55880 | 37232 ft | 463 kts | 208° |
| 2026-05-01 11:27 | 41.30482 | 3.52064 | 37236 ft | 463 kts | 208° |
| 2026-05-01 11:27 | 41.24709 | 3.48251 | 37225 ft | 464 kts | 207° |
| 2026-05-01 11:28 | 41.18812 | 3.44787 | 37202 ft | 465 kts | 197° |
| 2026-05-01 11:28 | 41.12463 | 3.43018 | 37238 ft | 467 kts | 194° |
| 2026-05-01 11:29 | 41.02955 | 3.40154 | 37217 ft | 467 kts | 194° |
| 2026-05-01 11:30 | 40.93421 | 3.37579 | 37221 ft | 468 kts | 193° |
| 2026-05-01 11:30 | 40.86998 | 3.35877 | 37219 ft | 468 kts | 193° |
| 2026-05-01 11:31 | 40.80649 | 3.34204 | 37215 ft | 468 kts | 193° |
| 2026-05-01 11:31 | 40.74260 | 3.32529 | 37216 ft | 468 kts | 193° |
| 2026-05-01 11:32 | 40.67867 | 3.30857 | 37212 ft | 468 kts | 193° |
| 2026-05-01 11:32 | 40.61476 | 3.29189 | 37211 ft | 468 kts | 193° |
| 2026-05-01 11:33 | 40.55086 | 3.27524 | 37213 ft | 468 kts | 193° |
| 2026-05-01 11:33 | 40.48692 | 3.25862 | 37214 ft | 468 kts | 193° |
| 2026-05-01 11:34 | 40.42293 | 3.24202 | 37202 ft | 468 kts | 192° |
| 2026-05-01 11:34 | 40.35891 | 3.22544 | 37208 ft | 469 kts | 192° |
| 2026-05-01 11:35 | 40.29492 | 3.21065 | 37207 ft | 471 kts | 192° |
| 2026-05-01 11:35 | 40.23036 | 3.19318 | 37204 ft | 471 kts | 193° |
| 2026-05-01 11:36 | 40.16643 | 3.17607 | 37200 ft | 473 kts | 192° |
| 2026-05-01 11:36 | 40.10177 | 3.15945 | 36987 ft | 472 kts | 192° |
| 2026-05-01 11:36 | 40.06974 | 3.15122 | 36392 ft | 463 kts | 192° |
| 2026-05-01 11:37 | 40.03853 | 3.14320 | 35836 ft | 451 kts | 192° |
| 2026-05-01 11:37 | 40.00796 | 3.13535 | 35305 ft | 446 kts | 192° |
| 2026-05-01 11:37 | 39.97750 | 3.12753 | 34784 ft | 447 kts | 193° |
| 2026-05-01 11:37 | 39.94727 | 3.11800 | 34237 ft | 447 kts | 201° |
| 2026-05-01 11:38 | 39.91922 | 3.10129 | 33647 ft | 445 kts | 210° |
| 2026-05-01 11:38 | 39.89206 | 3.08142 | 33085 ft | 447 kts | 210° |
| 2026-05-01 11:38 | 39.86437 | 3.06257 | 32531 ft | 450 kts | 207° |
| 2026-05-01 11:38 | 39.83615 | 3.04452 | 31974 ft | 453 kts | 207° |
| 2026-05-01 11:39 | 39.80830 | 3.02629 | 31447 ft | 455 kts | 208° |
| 2026-05-01 11:39 | 39.78039 | 3.00700 | 30890 ft | 456 kts | 210° |
| 2026-05-01 11:39 | 39.75243 | 2.98696 | 30370 ft | 458 kts | 210° |
| 2026-05-01 11:39 | 39.72455 | 2.96678 | 29770 ft | 459 kts | 211° |
| 2026-05-01 11:40 | 39.69663 | 2.94659 | 29169 ft | 461 kts | 210° |
| 2026-05-01 11:40 | 39.66856 | 2.92633 | 28578 ft | 462 kts | 210° |
| 2026-05-01 11:40 | 39.64030 | 2.90596 | 27974 ft | 464 kts | 210° |
| 2026-05-01 11:40 | 39.61203 | 2.88556 | 27431 ft | 466 kts | 210° |
| 2026-05-01 11:41 | 39.58366 | 2.86508 | 27047 ft | 467 kts | 210° |
| 2026-05-01 11:41 | 39.55528 | 2.84458 | 26681 ft | 469 kts | 210° |
| 2026-05-01 11:41 | 39.52670 | 2.82396 | 26295 ft | 470 kts | 210° |
| 2026-05-01 11:41 | 39.49814 | 2.80338 | 25934 ft | 471 kts | 210° |
| 2026-05-01 11:42 | 39.46957 | 2.78264 | 25576 ft | 471 kts | 212° |
| 2026-05-01 11:42 | 39.44316 | 2.75757 | 25157 ft | 470 kts | 225° |
| 2026-05-01 11:42 | 39.42193 | 2.72620 | 24811 ft | 450 kts | 233° |
| 2026-05-01 11:42 | 39.40299 | 2.69545 | 24450 ft | 425 kts | 231° |
| 2026-05-01 11:43 | 39.38359 | 2.66731 | 24122 ft | 416 kts | 227° |
| 2026-05-01 11:43 | 39.36378 | 2.64014 | 23783 ft | 417 kts | 227° |
| 2026-05-01 11:43 | 39.34429 | 2.61242 | 23392 ft | 416 kts | 229° |
| 2026-05-01 11:44 | 39.30730 | 2.55522 | 22576 ft | 413 kts | 231° |
| 2026-05-01 11:44 | 39.28923 | 2.52656 | 22183 ft | 410 kts | 231° |
| 2026-05-01 11:44 | 39.27116 | 2.49809 | 21725 ft | 408 kts | 231° |
| 2026-05-01 11:44 | 39.25344 | 2.47030 | 21215 ft | 406 kts | 231° |
| 2026-05-01 11:45 | 39.23557 | 2.44225 | 20717 ft | 403 kts | 231° |
| 2026-05-01 11:45 | 39.21792 | 2.41446 | 20219 ft | 399 kts | 231° |
| 2026-05-01 11:45 | 39.20037 | 2.38679 | 19754 ft | 397 kts | 231° |
| 2026-05-01 11:45 | 39.18294 | 2.35932 | 19263 ft | 395 kts | 231° |
| 2026-05-01 11:46 | 39.16569 | 2.33218 | 18800 ft | 392 kts | 231° |
| 2026-05-01 11:46 | 39.14838 | 2.30495 | 18315 ft | 390 kts | 231° |
| 2026-05-01 11:46 | 39.13124 | 2.27799 | 17794 ft | 388 kts | 230° |
| 2026-05-01 11:46 | 39.11420 | 2.25119 | 17265 ft | 385 kts | 230° |
| 2026-05-01 11:47 | 39.09726 | 2.22464 | 16751 ft | 382 kts | 230° |
| 2026-05-01 11:47 | 39.08049 | 2.19839 | 16243 ft | 378 kts | 230° |
| 2026-05-01 11:47 | 39.06387 | 2.17240 | 15747 ft | 374 kts | 230° |
| 2026-05-01 11:47 | 39.04740 | 2.14665 | 15258 ft | 371 kts | 230° |
| 2026-05-01 11:48 | 39.03105 | 2.12109 | 14684 ft | 369 kts | 230° |
| 2026-05-01 11:48 | 39.01479 | 2.09569 | 14092 ft | 366 kts | 230° |
| 2026-05-01 11:48 | 38.99888 | 2.07086 | 13457 ft | 361 kts | 230° |
| 2026-05-01 11:48 | 38.98300 | 2.04608 | 12808 ft | 357 kts | 230° |
| 2026-05-01 11:49 | 38.96734 | 2.02165 | 12154 ft | 352 kts | 230° |
| 2026-05-01 11:49 | 38.95200 | 1.99775 | 11531 ft | 342 kts | 230° |
| 2026-05-01 11:49 | 38.93702 | 1.97439 | 10919 ft | 333 kts | 230° |
| 2026-05-01 11:49 | 38.92306 | 1.95131 | 10330 ft | 325 kts | 237° |
| 2026-05-01 11:50 | 38.91367 | 1.92533 | 9706 ft | 319 kts | 252° |
| 2026-05-01 11:50 | 38.90777 | 1.89798 | 9085 ft | 313 kts | 255° |
| 2026-05-01 11:50 | 38.90366 | 1.88029 | 8660 ft | 311 kts | 252° |
| 2026-05-01 11:50 | 38.89645 | 1.85448 | 8193 ft | 303 kts | 249° |
| 2026-05-01 11:51 | 38.88911 | 1.82943 | 7774 ft | 295 kts | 250° |
| 2026-05-01 11:51 | 38.88262 | 1.80474 | 7361 ft | 289 kts | 252° |
| 2026-05-01 11:51 | 38.87699 | 1.78018 | 6951 ft | 284 kts | 254° |
| 2026-05-01 11:51 | 38.87186 | 1.75588 | 6550 ft | 280 kts | 254° |
| 2026-05-01 11:52 | 38.86688 | 1.73206 | 6097 ft | 277 kts | 255° |
| 2026-05-01 11:52 | 38.86186 | 1.70829 | 5678 ft | 273 kts | 255° |
| 2026-05-01 11:52 | 38.85689 | 1.68482 | 5271 ft | 272 kts | 256° |
| 2026-05-01 11:52 | 38.85200 | 1.66146 | 4853 ft | 271 kts | 257° |
| 2026-05-01 11:53 | 38.84717 | 1.63815 | 4418 ft | 270 kts | 256° |
| 2026-05-01 11:53 | 38.84238 | 1.61500 | 4093 ft | 265 kts | 256° |
| 2026-05-01 11:53 | 38.83749 | 1.59214 | 3846 ft | 268 kts | 256° |
| 2026-05-01 11:53 | 38.83240 | 1.56909 | 3617 ft | 269 kts | 256° |
| 2026-05-01 11:54 | 38.82725 | 1.54603 | 3369 ft | 269 kts | 256° |
| 2026-05-01 11:54 | 38.81209 | 1.47762 | 3002 ft | 266 kts | 256° |
| 2026-05-01 11:55 | 38.80682 | 1.45486 | 2986 ft | 267 kts | 252° |
| 2026-05-01 11:55 | 38.79976 | 1.43281 | 2983 ft | 268 kts | 246° |
| 2026-05-01 11:55 | 38.79131 | 1.41146 | 2978 ft | 268 kts | 244° |
| 2026-05-01 11:55 | 38.78278 | 1.39015 | 2977 ft | 268 kts | 245° |
| 2026-05-01 11:56 | 38.77464 | 1.36900 | 2978 ft | 268 kts | 245° |
| 2026-05-01 11:56 | 38.76638 | 1.34753 | 2979 ft | 269 kts | 245° |
| 2026-05-01 11:56 | 38.75795 | 1.32616 | 2979 ft | 269 kts | 244° |
| 2026-05-01 11:56 | 38.74931 | 1.30487 | 2979 ft | 269 kts | 244° |
| 2026-05-01 11:57 | 38.74054 | 1.28366 | 2975 ft | 269 kts | 243° |
| 2026-05-01 11:57 | 38.73172 | 1.26257 | 2978 ft | 269 kts | 243° |
| 2026-05-01 11:57 | 38.72390 | 1.24098 | 2943 ft | 268 kts | 257° |
| 2026-05-01 11:57 | 38.72306 | 1.21766 | 2925 ft | 261 kts | 284° |
| 2026-05-01 11:58 | 38.73023 | 1.19668 | 2949 ft | 256 kts | 307° |
| 2026-05-01 11:58 | 38.74190 | 1.17946 | 3028 ft | 257 kts | 317° |
| 2026-05-01 11:58 | 38.76929 | 1.15019 | 2947 ft | 255 kts | 335° |
| 2026-05-01 11:59 | 38.78591 | 1.14488 | 2832 ft | 233 kts | 2° |
| 2026-05-01 11:59 | 38.80062 | 1.14837 | 2615 ft | 209 kts | 28° |
| 2026-05-01 11:59 | 38.81005 | 1.16165 | 2408 ft | 208 kts | 69° |
| 2026-05-01 12:00 | 38.81185 | 1.19689 | 2638 ft | 203 kts | 90° |
| 2026-05-01 12:00 | 38.81106 | 1.21516 | 2622 ft | 206 kts | 88° |
| 2026-05-01 12:00 | 38.82026 | 1.24763 | 2465 ft | 182 kts | 56° |
| 2026-05-01 12:01 | 38.82680 | 1.26190 | 2477 ft | 190 kts | 59° |
| 2026-05-01 12:01 | 38.83300 | 1.27697 | 2225 ft | 191 kts | 61° |
| 2026-05-01 12:01 | 38.83901 | 1.29164 | 1813 ft | 179 kts | 61° |
| 2026-05-01 12:01 | 38.84457 | 1.30502 | 1358 ft | 163 kts | 62° |
| 2026-05-01 12:02 | 38.84973 | 1.31746 | 921 ft | 149 kts | 62° |
| 2026-05-01 12:02 | 38.85451 | 1.32902 | 603 ft | 146 kts | 63° |
| 2026-05-01 12:02 | 38.85932 | 1.34061 | 396 ft | 151 kts | 63° |
| 2026-05-01 12:02 | 38.86424 | 1.35246 | 201 ft | 151 kts | 63° |
| 2026-05-01 12:03 | 38.86901 | 1.36377 | 17 ft | 135 kts | 63° |
| 2026-05-01 12:03 | 38.87271 | 1.37281 | 16 ft | 91 kts | 63° |
| 2026-05-01 12:03 | 38.87513 | 1.37871 | 16 ft | 63 kts | 62° |
| 2026-05-01 12:03 | 38.87643 | 1.38190 | 21 ft | 25 kts | 62° |
| 2026-05-01 12:04 | 38.87729 | 1.38247 | 18 ft | 15 kts | 353° |
| 2026-05-01 12:04 | 38.87820 | 1.38184 | 14 ft | 6 kts | 304° |
| 2026-05-01 12:04 | 38.87818 | 1.38151 | 14 ft | 6 kts | 252° |
| 2026-05-01 12:04 | 38.87792 | 1.38084 | 15 ft | 11 kts | 242° |
| 2026-05-01 12:05 | 38.87749 | 1.37980 | 14 ft | 15 kts | 242° |
| 2026-05-01 12:05 | 38.87625 | 1.37685 | 14 ft | 18 kts | 242° |
| 2026-05-01 12:05 | 38.87591 | 1.37587 | 14 ft | 9 kts | 270° |
| 2026-05-01 12:06 | 38.87641 | 1.37517 | 13 ft | 13 kts | 337° |
| 2026-05-01 12:06 | 38.87691 | 1.37429 | 13 ft | 14 kts | 249° |
| 2026-05-01 12:06 | 38.87640 | 1.37293 | 15 ft | 19 kts | 244° |
| 2026-05-01 12:06 | 38.87596 | 1.37184 | 15 ft | 1 kts | 242° |
| 2026-05-01 12:07 | 38.87581 | 1.37148 | 13 ft | 8 kts | 242° |
| 2026-05-01 12:07 | 38.87548 | 1.37068 | 15 ft | 13 kts | 242° |
| 2026-05-01 12:07 | 38.87514 | 1.36961 | 14 ft | 10 kts | 287° |
| 2026-05-01 12:07 | 38.87542 | 1.36933 | 13 ft | 1 kts | 332° |
| 2026-05-01 12:08 | 38.87551 | 1.36927 | 13 ft | 1 kts | 332° |
| 2026-05-01 12:08 | 38.87554 | 1.36924 | 13 ft | 1 kts | 332° |
| 2026-05-01 12:08 | 38.87558 | 1.36922 | 16 ft | 1 kts | 332° |
| 2026-05-01 12:08 | 38.87561 | 1.36920 | 15 ft | 0 kts | 332° |